createdAt,value
2023-02-19T00:00:25.237Z,8.88
2023-02-19T00:02:56.116Z,8.89
2023-02-19T00:05:25.514Z,8.91
2023-02-19T00:07:54.949Z,8.94
2023-02-19T00:10:24.387Z,8.92
2023-02-19T00:12:56.438Z,8.95
2023-02-19T00:15:25.912Z,8.99
2023-02-19T00:17:55.350Z,9.08
2023-02-19T00:20:24.831Z,9.05
2023-02-19T00:22:54.274Z,9.03
2023-02-19T00:25:23.698Z,9.08
2023-02-19T00:27:55.745Z,9.03
2023-02-19T00:30:25.870Z,9.08
2023-02-19T00:32:55.504Z,9.18
2023-02-19T00:35:25.280Z,9.17
2023-02-19T00:37:54.673Z,9.20
2023-02-19T00:40:26.103Z,9.23
2023-02-19T00:42:58.797Z,9.15
2023-02-19T00:45:28.464Z,9.19
2023-02-19T00:47:57.973Z,9.15
2023-02-19T00:50:27.635Z,9.16
2023-02-19T00:52:57.125Z,8.98
2023-02-19T00:55:26.545Z,8.92
2023-02-19T00:57:58.566Z,8.86
2023-02-19T01:00:27.982Z,8.91
2023-02-19T01:02:57.408Z,8.87
2023-02-19T01:05:28.610Z,8.82
2023-02-19T01:07:58.026Z,8.87
2023-02-19T01:10:27.613Z,8.82
2023-02-19T01:12:59.617Z,8.77
2023-02-19T01:15:29.043Z,8.81
2023-02-19T01:17:58.433Z,8.80
2023-02-19T01:20:28.252Z,8.82
2023-02-19T01:22:58.049Z,8.87
2023-02-19T01:25:27.458Z,8.85
2023-02-19T01:27:59.408Z,8.84
2023-02-19T01:30:28.819Z,8.80
2023-02-19T01:32:58.319Z,8.69
2023-02-19T01:35:28.013Z,8.63
2023-02-19T01:37:57.486Z,8.51
2023-02-19T01:40:27.505Z,8.50
2023-02-19T01:42:59.470Z,8.46
2023-02-19T01:45:31.480Z,8.34
2023-02-19T01:48:06.851Z,8.32
2023-02-19T01:50:41.428Z,8.22
2023-02-19T01:53:12.569Z,8.33
2023-02-19T01:55:43.306Z,8.29
2023-02-19T01:58:15.515Z,8.17
2023-02-19T02:00:45.287Z,8.12
2023-02-19T02:03:16.242Z,8.01
2023-02-19T02:05:53.106Z,7.99
2023-02-19T02:08:35.560Z,7.99
2023-02-19T02:11:06.048Z,7.98
2023-02-19T02:13:40.418Z,8.01
2023-02-19T02:16:23.131Z,7.94
2023-02-19T02:19:01.911Z,7.97
2023-02-19T02:21:56.160Z,7.90
2023-02-19T02:24:44.253Z,7.88
2023-02-19T02:27:41.950Z,7.81
2023-02-19T02:30:32.241Z,7.67
2023-02-19T02:33:09.125Z,7.67
2023-02-19T02:35:46.509Z,7.78
2023-02-19T02:38:17.939Z,7.68
2023-02-19T02:40:48.096Z,7.68
2023-02-19T02:43:18.553Z,7.82
2023-02-19T02:45:50.814Z,7.88
2023-02-19T02:48:46.137Z,7.84
2023-02-19T02:51:22.984Z,7.87
2023-02-19T02:54:16.889Z,7.90
2023-02-19T02:56:49.291Z,7.92
2023-02-19T02:59:22.641Z,7.92
2023-02-19T03:02:10.744Z,7.98
2023-02-19T03:05:03.177Z,8.07
2023-02-19T03:07:36.810Z,8.16
2023-02-19T03:10:10.591Z,8.23
2023-02-19T03:12:55.960Z,8.30
2023-02-19T03:15:42.820Z,8.32
2023-02-19T03:18:29.272Z,8.40
2023-02-19T03:21:01.253Z,8.43
2023-02-19T03:23:48.363Z,8.33
2023-02-19T03:26:20.804Z,8.10
2023-02-19T03:29:08.662Z,8.03
2023-02-19T03:31:42.700Z,7.84
2023-02-19T03:34:19.966Z,7.66
2023-02-19T03:36:56.746Z,7.53
2023-02-19T03:39:27.299Z,7.37
2023-02-19T03:42:05.184Z,7.37
2023-02-19T03:44:43.481Z,7.23
2023-02-19T03:47:19.791Z,7.09
2023-02-19T03:49:57.673Z,6.94
2023-02-19T03:52:40.013Z,6.86
2023-02-19T03:55:14.317Z,6.89
2023-02-19T03:57:52.269Z,6.92
2023-02-19T04:00:29.948Z,6.83
2023-02-19T04:03:06.220Z,6.75
2023-02-19T04:05:42.633Z,6.70
2023-02-19T04:08:16.877Z,6.71
2023-02-19T04:10:53.301Z,6.61
2023-02-19T04:13:26.763Z,6.61
2023-02-19T04:16:00.280Z,6.73
2023-02-19T04:18:34.189Z,6.54
2023-02-19T04:21:09.047Z,6.47
2023-02-19T04:23:43.289Z,6.47
2023-02-19T04:26:14.772Z,6.41
2023-02-19T04:28:44.789Z,6.32
2023-02-19T04:31:14.878Z,6.38
2023-02-19T04:33:44.465Z,6.37
2023-02-19T04:36:16.469Z,6.41
2023-02-19T04:38:45.842Z,6.33
2023-02-19T04:41:15.281Z,6.34
2023-02-19T04:43:44.689Z,6.26
2023-02-19T04:46:14.149Z,6.25
2023-02-19T04:48:44.442Z,6.18
2023-02-19T04:51:16.440Z,6.26
2023-02-19T04:53:45.830Z,5.96
2023-02-19T04:56:17.718Z,5.84
2023-02-19T04:58:47.729Z,5.87
2023-02-19T05:01:17.693Z,5.90
2023-02-19T05:03:47.540Z,5.93
2023-02-19T05:06:19.723Z,5.81
2023-02-19T05:08:49.327Z,5.77
2023-02-19T05:11:18.882Z,5.71
2023-02-19T05:13:48.301Z,5.73
2023-02-19T05:16:18.752Z,5.73
2023-02-19T05:18:49.042Z,5.71
2023-02-19T05:21:21.126Z,5.74
2023-02-19T05:23:50.565Z,5.66
2023-02-19T05:26:23.229Z,5.66
2023-02-19T05:28:54.758Z,5.59
2023-02-19T05:31:24.727Z,5.68
2023-02-19T05:33:54.317Z,5.63
2023-02-19T05:36:26.847Z,5.55
2023-02-19T05:38:57.740Z,5.57
2023-02-19T05:41:29.052Z,5.64
2023-02-19T05:43:59.674Z,5.47
2023-02-19T05:46:31.078Z,5.42
2023-02-19T05:49:01.183Z,5.52
2023-02-19T05:51:33.263Z,5.39
2023-02-19T05:54:02.734Z,5.38
2023-02-19T05:56:37.098Z,5.30
2023-02-19T05:59:09.721Z,5.33
2023-02-19T06:01:39.615Z,5.36
2023-02-19T06:04:09.426Z,5.26
2023-02-19T06:06:41.669Z,5.27
2023-02-19T06:09:12.372Z,5.28
2023-02-19T06:11:43.458Z,5.08
2023-02-19T06:14:14.950Z,5.02
2023-02-19T06:16:44.708Z,4.93
2023-02-19T06:19:14.217Z,4.79
2023-02-19T06:21:46.700Z,4.96
2023-02-19T06:24:16.445Z,4.67
2023-02-19T06:26:46.598Z,4.68
2023-02-19T06:29:16.043Z,4.67
2023-02-19T06:31:46.255Z,4.59
2023-02-19T06:34:15.902Z,4.59
2023-02-19T06:36:48.116Z,4.66
2023-02-19T06:39:17.697Z,4.58
2023-02-19T06:41:47.588Z,4.55
2023-02-19T06:44:17.130Z,4.41
2023-02-19T06:46:46.651Z,4.43
2023-02-19T06:49:16.205Z,4.33
2023-02-19T06:51:48.207Z,4.49
2023-02-19T06:54:17.725Z,4.37
2023-02-19T06:56:47.426Z,4.24
2023-02-19T06:59:19.507Z,4.24
2023-02-19T07:01:49.284Z,4.31
2023-02-19T07:04:19.069Z,4.24
2023-02-19T07:06:51.207Z,4.13
2023-02-19T07:09:20.675Z,4.12
2023-02-19T07:11:50.237Z,4.14
2023-02-19T07:14:20.974Z,4.14
2023-02-19T07:16:51.300Z,4.06
2023-02-19T07:19:20.813Z,4.11
2023-02-19T07:21:52.799Z,3.96
2023-02-19T07:24:22.766Z,4.08
2023-02-19T07:26:52.120Z,4.09
2023-02-19T07:29:21.659Z,4.10
2023-02-19T07:31:51.161Z,4.12
2023-02-19T07:34:20.917Z,4.09
2023-02-19T07:36:52.939Z,4.06
2023-02-19T07:39:22.475Z,3.90
2023-02-19T07:41:51.868Z,4.20
2023-02-19T07:44:29.004Z,4.02
2023-02-19T07:46:58.488Z,4.06
2023-02-19T07:49:28.768Z,4.24
2023-02-19T07:52:00.896Z,4.38
2023-02-19T07:54:30.822Z,4.25
2023-02-19T07:57:00.353Z,4.35
2023-02-19T07:59:29.793Z,4.53
2023-02-19T08:02:11.746Z,4.56
2023-02-19T08:04:41.505Z,4.62
2023-02-19T08:07:13.534Z,4.56
2023-02-19T08:09:43.069Z,4.79
2023-02-19T08:12:26.788Z,4.89
2023-02-19T08:14:56.241Z,4.73
2023-02-19T08:17:26.443Z,4.73
2023-02-19T08:19:56.190Z,4.79
2023-02-19T08:22:28.533Z,4.77
2023-02-19T08:24:58.182Z,4.91
2023-02-19T08:27:27.717Z,5.06
2023-02-19T08:29:57.214Z,4.88
2023-02-19T08:32:26.621Z,5.06
2023-02-19T08:34:56.036Z,4.89
2023-02-19T08:37:28.181Z,5.15
2023-02-19T08:39:57.669Z,5.09
2023-02-19T08:42:27.192Z,5.35
2023-02-19T08:44:56.743Z,5.08
2023-02-19T08:47:26.293Z,5.35
2023-02-19T08:49:55.754Z,4.93
2023-02-19T08:52:27.821Z,4.87
2023-02-19T08:54:57.326Z,5.07
2023-02-19T08:57:28.111Z,5.06
2023-02-19T08:59:57.644Z,4.91
2023-02-19T09:02:27.881Z,4.99
2023-02-19T09:04:57.444Z,5.10
2023-02-19T09:07:30.041Z,4.81
2023-02-19T09:09:59.497Z,4.82
2023-02-19T09:12:29.677Z,4.95
2023-02-19T09:14:59.352Z,5.09
2023-02-19T09:17:28.844Z,5.21
2023-02-19T09:19:58.283Z,5.62
2023-02-19T09:22:30.243Z,5.67
2023-02-19T09:24:59.659Z,5.85
2023-02-19T09:27:31.734Z,5.75
2023-02-19T09:30:01.345Z,5.92
2023-02-19T09:32:33.697Z,5.80
2023-02-19T09:35:03.108Z,5.76
2023-02-19T09:37:35.154Z,5.64
2023-02-19T09:40:04.602Z,5.76
2023-02-19T09:42:35.895Z,6.04
2023-02-19T09:45:08.023Z,6.11
2023-02-19T09:47:37.709Z,5.89
2023-02-19T09:50:10.843Z,5.52
2023-02-19T09:52:48.458Z,5.52
2023-02-19T09:55:20.753Z,5.80
2023-02-19T09:57:51.082Z,6.01
2023-02-19T10:00:25.335Z,6.38
2023-02-19T10:02:57.834Z,6.27
2023-02-19T10:05:28.821Z,6.28
2023-02-19T10:08:01.494Z,6.16
2023-02-19T10:10:32.814Z,6.19
2023-02-19T10:13:14.023Z,6.09
2023-02-19T10:15:49.619Z,5.90
2023-02-19T10:18:21.428Z,6.34
2023-02-19T10:20:52.394Z,6.97
2023-02-19T10:23:25.078Z,6.80
2023-02-19T10:25:57.235Z,6.81
2023-02-19T10:28:31.259Z,6.69
2023-02-19T10:31:02.563Z,6.70
2023-02-19T10:33:32.254Z,6.95
2023-02-19T10:36:04.045Z,6.83
2023-02-19T10:38:38.156Z,7.38
2023-02-19T10:41:10.493Z,6.98
2023-02-19T10:43:42.855Z,7.14
2023-02-19T10:46:20.238Z,7.17
2023-02-19T10:48:54.967Z,7.40
2023-02-19T10:51:33.200Z,7.53
2023-02-19T10:54:20.177Z,7.26
2023-02-19T10:56:49.721Z,7.37
2023-02-19T10:59:27.257Z,6.93
2023-02-19T11:01:57.999Z,7.09
2023-02-19T11:04:29.231Z,7.44
2023-02-19T11:06:59.461Z,7.42
2023-02-19T11:09:40.309Z,7.92
2023-02-19T11:12:11.336Z,7.62
2023-02-19T11:14:45.221Z,7.78
2023-02-19T11:17:26.477Z,8.48
2023-02-19T11:19:57.748Z,8.60
2023-02-19T11:22:34.113Z,8.28
2023-02-19T11:25:10.303Z,8.18
2023-02-19T11:27:56.410Z,7.67
2023-02-19T11:30:45.198Z,6.96
2023-02-19T11:33:28.929Z,7.24
2023-02-19T11:36:19.697Z,7.77
2023-02-19T11:38:49.218Z,8.65
2023-02-19T11:41:32.646Z,9.19
2023-02-19T11:44:17.112Z,9.64
2023-02-19T11:46:56.944Z,8.92
2023-02-19T11:49:38.433Z,8.79
2023-02-19T11:52:19.817Z,9.09
2023-02-19T11:54:54.625Z,8.23
2023-02-19T11:57:43.154Z,8.05
2023-02-19T12:00:27.109Z,8.58
2023-02-19T12:03:28.222Z,9.41
2023-02-19T12:06:11.665Z,10.27
2023-02-19T12:09:00.938Z,10.27
2023-02-19T12:11:47.463Z,10.06
2023-02-19T12:14:48.094Z,8.76
2023-02-19T12:17:29.524Z,8.93
2023-02-19T12:20:13.228Z,8.34
2023-02-19T12:22:48.594Z,9.43
2023-02-19T12:25:44.747Z,10.68
2023-02-19T12:28:34.251Z,17.39
2023-02-19T12:31:28.053Z,17.08
2023-02-19T12:34:24.972Z,13.40
2023-02-19T12:37:06.077Z,17.61
2023-02-19T12:39:42.804Z,18.65
2023-02-19T12:42:23.420Z,18.90
2023-02-19T12:44:57.752Z,20.63
2023-02-19T12:47:34.873Z,22.76
2023-02-19T12:50:10.949Z,16.11
2023-02-19T12:52:46.337Z,18.27
2023-02-19T12:55:23.910Z,18.09
2023-02-19T12:57:54.157Z,16.14
2023-02-19T13:00:35.097Z,14.10
2023-02-19T13:03:17.730Z,16.41
2023-02-19T13:05:52.578Z,19.45
2023-02-19T13:08:29.199Z,19.44
2023-02-19T13:11:03.612Z,20.52
2023-02-19T13:13:38.591Z,19.41
2023-02-19T13:16:15.110Z,17.03
2023-02-19T13:18:57.643Z,19.72
2023-02-19T13:21:42.843Z,21.65
2023-02-19T13:27:20.553Z,22.77
2023-02-19T13:30:09.823Z,24.41
2023-02-19T13:32:56.748Z,23.10
2023-02-19T13:35:55.759Z,20.77
2023-02-19T13:38:26.049Z,19.87
2023-02-19T13:40:57.063Z,18.95
2023-02-19T13:43:29.420Z,15.91
2023-02-19T13:46:05.457Z,12.14
2023-02-19T13:48:37.086Z,11.09
2023-02-19T13:51:52.104Z,11.08
2023-02-19T13:54:30.215Z,10.05
2023-02-19T13:57:29.200Z,10.00
2023-02-19T14:00:00.213Z,9.89
2023-02-19T14:02:35.245Z,9.85
2023-02-19T14:05:08.941Z,9.68
2023-02-19T14:07:57.094Z,10.09
2023-02-19T14:11:05.163Z,9.88
2023-02-19T14:14:06.894Z,9.71
2023-02-19T14:16:52.863Z,9.47
2023-02-19T14:19:51.505Z,9.92
2023-02-19T14:23:02.887Z,9.62
2023-02-19T14:25:38.306Z,9.64
2023-02-19T14:28:16.177Z,9.97
2023-02-19T14:30:52.087Z,9.66
2023-02-19T14:33:24.780Z,9.56
2023-02-19T14:35:58.152Z,10.01
2023-02-19T14:38:31.178Z,9.76
2023-02-19T14:41:01.342Z,9.15
2023-02-19T14:43:32.140Z,9.22
2023-02-19T14:46:10.107Z,9.12
2023-02-19T14:48:44.385Z,9.19
2023-02-19T14:51:19.061Z,9.17
2023-02-19T14:53:49.070Z,8.91
2023-02-19T14:56:23.952Z,9.19
2023-02-19T14:59:09.847Z,9.19
2023-02-19T15:01:42.655Z,8.77
2023-02-19T15:04:23.829Z,8.95
2023-02-19T15:06:56.703Z,9.19
2023-02-19T15:09:31.261Z,8.79
2023-02-19T15:12:02.795Z,8.63
2023-02-19T15:14:33.358Z,8.90
2023-02-19T15:17:07.956Z,8.72
2023-02-19T15:19:39.694Z,9.11
2023-02-19T15:22:09.141Z,8.97
2023-02-19T15:24:38.909Z,8.56
2023-02-19T15:27:08.417Z,8.37
2023-02-19T15:29:47.262Z,8.32
2023-02-19T15:32:24.031Z,8.17
2023-02-19T15:34:58.628Z,7.99
2023-02-19T15:37:31.198Z,7.84
2023-02-19T15:40:03.008Z,7.69
2023-02-19T15:42:34.994Z,7.74
2023-02-19T15:45:08.383Z,7.67
2023-02-19T15:47:43.495Z,7.55
2023-02-19T15:50:19.156Z,7.38
2023-02-19T15:52:53.069Z,7.29
2023-02-19T15:55:31.359Z,7.23
2023-02-19T15:58:08.638Z,7.07
2023-02-19T16:00:43.202Z,7.16
2023-02-19T16:03:21.591Z,7.04
2023-02-19T16:06:04.442Z,7.01
2023-02-19T16:08:35.155Z,6.98
2023-02-19T16:11:07.301Z,6.86
2023-02-19T16:13:37.769Z,6.69
2023-02-19T16:16:16.976Z,6.64
2023-02-19T16:18:54.408Z,6.59
2023-02-19T16:21:26.387Z,6.48
2023-02-19T16:24:07.735Z,6.49
2023-02-19T16:26:42.758Z,6.48
2023-02-19T16:29:22.065Z,6.38
2023-02-19T16:31:53.511Z,6.23
2023-02-19T16:34:34.480Z,6.16
2023-02-19T16:37:05.189Z,6.12
2023-02-19T16:39:35.157Z,6.04
2023-02-19T16:42:17.269Z,5.92
2023-02-19T16:44:47.584Z,5.87
2023-02-19T16:47:23.296Z,5.86
2023-02-19T16:49:55.686Z,5.80
2023-02-19T16:52:25.139Z,5.68
2023-02-19T16:54:54.495Z,5.67
2023-02-19T16:57:23.900Z,5.61
2023-02-19T16:59:53.302Z,5.62
2023-02-19T17:02:26.695Z,5.54
2023-02-19T17:04:58.930Z,5.53
2023-02-19T17:07:28.605Z,5.42
2023-02-19T17:09:57.993Z,5.44
2023-02-19T17:12:27.381Z,5.40
2023-02-19T17:14:56.807Z,5.36
2023-02-19T17:17:26.220Z,5.31
2023-02-19T17:19:58.274Z,5.35
2023-02-19T17:22:27.759Z,5.37
2023-02-19T17:24:57.168Z,5.35
2023-02-19T17:27:26.600Z,5.35
2023-02-19T17:29:56.160Z,5.35
2023-02-19T17:32:25.662Z,5.37
2023-02-19T17:34:57.714Z,5.38
2023-02-19T17:37:27.284Z,5.35
2023-02-19T17:39:56.672Z,5.37
2023-02-19T17:42:26.205Z,5.34
2023-02-19T17:44:55.673Z,5.30
2023-02-19T17:47:25.110Z,5.26
2023-02-19T17:49:55.700Z,5.21
2023-02-19T17:52:29.346Z,5.24
2023-02-19T17:54:58.739Z,5.22
2023-02-19T17:57:33.398Z,5.20
2023-02-19T18:00:04.573Z,5.19
2023-02-19T18:02:41.932Z,5.12
2023-02-19T18:05:11.805Z,5.13
2023-02-19T18:07:43.750Z,5.10
2023-02-19T18:10:13.924Z,5.06
2023-02-19T18:12:43.285Z,5.02
2023-02-19T18:15:18.557Z,5.01
2023-02-19T18:17:48.074Z,4.99
2023-02-19T18:20:18.874Z,4.99
2023-02-19T18:22:50.822Z,4.99
2023-02-19T18:25:22.137Z,4.96
2023-02-19T18:27:52.160Z,4.96
2023-02-19T18:30:22.985Z,4.92
2023-02-19T18:32:53.522Z,4.95
2023-02-19T18:35:23.834Z,4.92
2023-02-19T18:37:56.894Z,4.91
2023-02-19T18:40:28.722Z,4.91
2023-02-19T18:42:58.845Z,4.87
2023-02-19T18:45:29.768Z,4.91
2023-02-19T18:47:59.257Z,4.88
2023-02-19T18:50:28.726Z,4.88
2023-02-19T18:53:00.727Z,4.92
2023-02-19T18:55:30.252Z,4.93
2023-02-19T18:57:59.671Z,4.91
2023-02-19T19:00:29.158Z,4.99
2023-02-19T19:02:59.686Z,5.04
2023-02-19T19:05:29.853Z,5.11
2023-02-19T19:08:01.946Z,5.11
2023-02-19T19:10:32.270Z,5.14
2023-02-19T19:13:02.414Z,5.12
2023-02-19T19:15:31.945Z,5.18
2023-02-19T19:18:02.793Z,5.13
2023-02-19T19:20:32.322Z,5.17
2023-02-19T19:23:04.913Z,5.21
2023-02-19T19:25:34.377Z,5.11
2023-02-19T19:28:03.902Z,5.15
2023-02-19T19:30:33.894Z,5.20
2023-02-19T19:33:03.655Z,5.28
2023-02-19T19:35:33.045Z,5.29
2023-02-19T19:38:05.446Z,5.24
2023-02-19T19:40:34.925Z,5.25
2023-02-19T19:43:05.960Z,5.28
2023-02-19T19:45:35.423Z,5.31
2023-02-19T19:48:05.778Z,5.26
2023-02-19T19:50:35.251Z,5.23
2023-02-19T19:53:07.272Z,5.30
2023-02-19T19:55:36.689Z,5.26
2023-02-19T19:58:06.199Z,5.38
2023-02-19T20:00:35.594Z,5.41
2023-02-19T20:03:05.618Z,5.43
2023-02-19T20:05:35.251Z,5.47
2023-02-19T20:08:07.754Z,5.46
2023-02-19T20:10:37.145Z,5.37
2023-02-19T20:13:06.974Z,5.28
2023-02-19T20:15:36.524Z,5.33
2023-02-19T20:18:06.303Z,5.32
2023-02-19T20:20:35.986Z,5.28
2023-02-19T20:23:08.108Z,5.28
2023-02-19T20:25:38.014Z,5.22
2023-02-19T20:28:07.954Z,5.21
2023-02-19T20:30:37.733Z,5.10
2023-02-19T20:33:07.428Z,5.06
2023-02-19T20:35:36.926Z,5.07
2023-02-19T20:38:09.392Z,5.08
2023-02-19T20:40:38.890Z,5.02
2023-02-19T20:43:08.511Z,5.04
2023-02-19T20:45:37.920Z,5.07
2023-02-19T20:48:07.422Z,5.16
2023-02-19T20:50:36.861Z,5.15
2023-02-19T20:53:09.079Z,5.19
2023-02-19T20:55:38.586Z,5.18
2023-02-19T20:58:08.872Z,5.27
2023-02-19T21:00:38.397Z,5.33
2023-02-19T21:03:09.098Z,5.33
2023-02-19T21:05:39.928Z,5.30
2023-02-19T21:08:14.106Z,5.31
2023-02-19T21:10:43.653Z,5.41
2023-02-19T21:13:13.088Z,5.47
2023-02-19T21:15:42.758Z,5.45
2023-02-19T21:18:12.366Z,5.44
2023-02-19T21:20:41.807Z,5.45
2023-02-19T21:23:13.998Z,5.46
2023-02-19T21:25:43.393Z,5.47
2023-02-19T21:28:13.293Z,5.51
2023-02-19T21:30:42.889Z,5.52
2023-02-19T21:33:12.732Z,5.53
2023-02-19T21:35:42.230Z,5.57
2023-02-19T21:38:14.248Z,5.53
2023-02-19T21:40:43.722Z,5.53
2023-02-19T21:43:13.085Z,5.56
2023-02-19T21:45:42.821Z,5.61
2023-02-19T21:48:12.322Z,5.62
2023-02-19T21:50:45.449Z,5.63
2023-02-19T21:53:18.277Z,5.64
2023-02-19T21:55:58.425Z,5.66
2023-02-19T21:58:28.395Z,5.69
2023-02-19T22:00:58.271Z,5.67
2023-02-19T22:03:27.773Z,5.71
2023-02-19T22:05:57.469Z,5.61
2023-02-19T22:08:31.850Z,5.62
2023-02-19T22:11:02.371Z,5.66
2023-02-19T22:13:31.786Z,5.63
2023-02-19T22:16:02.331Z,5.57
2023-02-19T22:18:31.854Z,5.44
2023-02-19T22:21:02.340Z,5.30
2023-02-19T22:23:34.633Z,5.29
2023-02-19T22:26:04.110Z,5.20
2023-02-19T22:28:33.589Z,5.14
2023-02-19T22:31:03.033Z,5.25
2023-02-19T22:33:32.487Z,5.14
2023-02-19T22:36:02.334Z,5.09
2023-02-19T22:38:34.786Z,5.09
2023-02-19T22:41:05.282Z,5.24
2023-02-19T22:43:34.684Z,5.20
2023-02-19T22:46:05.112Z,5.19
2023-02-19T22:48:34.584Z,5.20
2023-02-19T22:51:04.072Z,5.27
2023-02-19T22:53:36.144Z,5.31
2023-02-19T22:56:05.736Z,5.43
2023-02-19T22:58:35.129Z,5.51
2023-02-19T23:01:04.574Z,5.42
2023-02-19T23:03:34.056Z,5.50
2023-02-19T23:06:05.867Z,5.55
2023-02-19T23:08:37.850Z,5.62
2023-02-19T23:11:07.294Z,5.59
2023-02-19T23:13:36.726Z,5.61
2023-02-19T23:16:06.698Z,5.64
2023-02-19T23:18:36.190Z,5.68
2023-02-19T23:21:05.642Z,5.72
2023-02-19T23:23:35.039Z,5.69
2023-02-19T23:26:08.374Z,5.75
2023-02-19T23:28:37.872Z,5.79
2023-02-19T23:31:07.949Z,5.88
2023-02-19T23:33:37.980Z,5.98
2023-02-19T23:36:08.076Z,6.02
2023-02-19T23:38:37.524Z,5.96
2023-02-19T23:41:11.957Z,5.96
2023-02-19T23:43:41.481Z,6.01
2023-02-19T23:46:12.006Z,6.03
2023-02-19T23:48:41.635Z,5.94
2023-02-19T23:51:11.101Z,5.99
2023-02-19T23:53:40.530Z,6.00
2023-02-19T23:56:12.862Z,6.00
2023-02-19T23:58:42.471Z,5.97
